Time;durP1;ratioP1;P1;durP2;ratioP2;P2;SDS_P1;SDS_P2;PMS_P1;PMS_P2;Temp;Humidity;BMP_temperature;BMP_pressure;BME280_temperature;BME280_humidity;BME280_pressure;Samples;Min_cycle;Max_cycle;Signal;HPM_P1;HPM_P2
2020/12/23 06:00:25;;;;;;;32.87;12.23;;;9.10;97.30;;;;;;6033388;23;21318;31
2020/12/23 06:03:02;;;;;;;26.60;11.27;;;9.00;97.30;;;;;;4932186;29;20964;-73
2020/12/23 06:05:29;;;;;;;35.00;12.43;;;9.00;97.30;;;;;;4937413;29;20432;-72
2020/12/23 06:07:58;;;;;;;31.63;12.77;;;9.00;97.30;;;;;;4937483;29;20515;-73
2020/12/23 06:10:24;;;;;;;31.13;13.67;;;9.00;97.30;;;;;;4936031;29;20785;-74
2020/12/23 06:12:56;;;;;;;31.93;13.50;;;9.00;97.30;;;;;;4934087;29;20439;-73
2020/12/23 06:15:30;;;;;;;32.80;13.03;;;9.10;97.30;;;;;;4934203;29;20437;-74
2020/12/23 06:18:01;;;;;;;35.30;14.43;;;9.00;97.30;;;;;;4934273;29;20459;-74
2020/12/23 06:20:31;;;;;;;37.07;14.13;;;9.00;97.30;;;;;;4934597;29;20431;-74
2020/12/23 06:22:57;;;;;;;36.03;13.97;;;9.00;97.30;;;;;;4934367;29;20428;-73
2020/12/23 06:25:25;;;;;;;39.23;12.97;;;9.10;97.30;;;;;;4919779;29;20439;-74
2020/12/23 06:27:53;;;;;;;31.83;14.10;;;9.10;97.30;;;;;;4919532;29;20464;-74
2020/12/23 06:30:20;;;;;;;32.87;13.33;;;9.10;97.30;;;;;;4932953;29;20420;-74
2020/12/23 06:32:46;;;;;;;33.23;13.60;;;9.10;97.30;;;;;;4918917;29;20444;-73
2020/12/23 06:35:12;;;;;;;29.97;13.00;;;9.10;97.30;;;;;;4933374;29;20476;-73
2020/12/23 06:37:38;;;;;;;26.57;11.93;;;9.10;97.30;;;;;;4932430;29;20457;-74
2020/12/23 06:40:08;;;;;;;31.97;13.90;;;9.10;97.30;;;;;;4933039;29;20199;-74
2020/12/23 06:42:34;;;;;;;31.03;12.93;;;9.10;97.30;;;;;;4930797;29;20344;-73
2020/12/23 06:45:01;;;;;;;27.33;11.40;;;9.10;97.30;;;;;;4933362;29;20912;-74
2020/12/23 06:47:29;;;;;;;36.43;13.00;;;9.10;97.30;;;;;;4933296;29;20200;-73
2020/12/23 06:50:00;;;;;;;30.90;12.63;;;9.10;97.30;;;;;;4933738;29;20433;-73
2020/12/23 06:52:28;;;;;;;26.10;11.27;;;9.10;97.30;;;;;;4917450;29;20531;-73
2020/12/23 06:54:56;;;;;;;30.77;12.63;;;9.10;97.30;;;;;;4933535;29;20444;-73
2020/12/23 06:57:37;;;;;;;33.47;12.90;;;9.10;97.30;;;;;;4918442;29;20551;-73
2020/12/23 07:00:33;;;;;;;27.10;12.17;;;9.10;97.30;;;;;;4915557;29;20425;-73
2020/12/23 07:03:05;;;;;;;28.10;12.40;;;9.10;97.30;;;;;;4930773;29;20527;-74
2020/12/23 07:05:31;;;;;;;22.73;10.43;;;9.10;97.30;;;;;;4932763;29;20444;-73
2020/12/23 07:08:05;;;;;;;37.07;13.73;;;9.10;97.30;;;;;;4932759;29;20431;-73
2020/12/23 07:10:39;;;;;;;31.20;12.23;;;9.10;97.30;;;;;;4918167;29;20424;-73
2020/12/23 07:13:16;;;;;;;32.30;12.77;;;9.10;97.30;;;;;;4932282;29;20419;-74
2020/12/23 07:15:55;;;;;;;32.67;13.13;;;9.10;97.30;;;;;;4931163;29;20420;-74
2020/12/23 07:18:27;;;;;;;26.97;11.37;;;9.10;97.30;;;;;;4915691;29;20479;-74
2020/12/23 07:20:59;;;;;;;30.60;13.60;;;9.10;97.30;;;;;;4933205;29;20843;-74
2020/12/23 07:23:28;;;;;;;29.10;13.33;;;9.10;97.30;;;;;;4931628;29;20508;-73
2020/12/23 07:25:56;;;;;;;34.27;13.10;;;9.10;97.30;;;;;;4917283;29;20428;-73
2020/12/23 07:28:35;;;;;;;29.67;13.00;;;9.10;97.30;;;;;;4932228;29;20424;-73
2020/12/23 07:31:02;;;;;;;30.20;13.50;;;9.10;97.30;;;;;;4932769;29;20596;-73
2020/12/23 07:33:29;;;;;;;32.43;12.70;;;9.10;97.30;;;;;;4932515;29;20945;-73
2020/12/23 07:35:57;;;;;;;24.97;11.07;;;9.10;97.30;;;;;;4932512;29;20934;-74
2020/12/23 07:38:26;;;;;;;30.57;12.43;;;9.20;97.30;;;;;;4932633;29;20563;-74
2020/12/23 07:40:52;;;;;;;34.13;13.27;;;9.20;97.30;;;;;;4917859;29;20437;-74
2020/12/23 07:43:18;;;;;;;35.40;13.83;;;9.20;97.30;;;;;;4917741;29;20417;-74
2020/12/23 07:45:45;;;;;;;27.10;11.67;;;9.20;97.30;;;;;;4932359;29;20993;-73
2020/12/23 07:48:18;;;;;;;25.13;11.50;;;9.10;97.30;;;;;;4932372;29;20488;-73
2020/12/23 07:50:46;;;;;;;29.87;13.27;;;9.10;97.30;;;;;;4932548;29;20448;-74
2020/12/23 07:53:19;;;;;;;31.00;12.90;;;9.10;97.30;;;;;;4932393;29;20509;-73
2020/12/23 07:55:47;;;;;;;31.10;13.10;;;9.10;97.30;;;;;;4917534;29;20413;-74
2020/12/23 07:58:14;;;;;;;34.80;14.00;;;9.10;97.30;;;;;;4917471;29;20484;-73
2020/12/23 08:00:45;;;;;;;32.33;13.13;;;9.10;97.30;;;;;;4931354;29;20866;-73
2020/12/23 08:03:12;;;;;;;37.93;14.23;;;9.10;97.30;;;;;;4929929;29;20803;-73
2020/12/23 08:05:45;;;;;;;36.20;14.03;;;9.20;97.30;;;;;;4932744;29;20432;-74
2020/12/23 08:08:11;;;;;;;36.87;15.00;;;9.20;97.30;;;;;;4932223;29;20527;-73
2020/12/23 08:10:37;;;;;;;39.77;16.50;;;9.30;97.30;;;;;;4916972;29;21001;-73
2020/12/23 08:13:06;;;;;;;33.50;14.13;;;9.30;97.30;;;;;;4931436;29;20567;-74
2020/12/23 08:15:33;;;;;;;38.27;14.63;;;9.40;97.30;;;;;;4916905;29;20263;-74
2020/12/23 08:18:04;;;;;;;37.00;13.97;;;9.40;97.30;;;;;;4931901;29;21017;-74
2020/12/23 08:20:32;;;;;;;33.23;13.70;;;9.40;97.30;;;;;;4931510;29;20938;-74
2020/12/23 08:23:00;;;;;;;35.70;14.73;;;9.40;97.30;;;;;;4916947;29;20425;-72
2020/12/23 08:25:28;;;;;;;37.50;13.80;;;9.50;97.30;;;;;;4931877;29;20524;-72
2020/12/23 08:28:00;;;;;;;34.23;13.47;;;9.50;97.30;;;;;;4916703;29;20512;-72
2020/12/23 08:30:28;;;;;;;38.47;14.53;;;9.50;97.30;;;;;;4917088;29;20417;-72
2020/12/23 08:33:16;;;;;;;38.60;14.90;;;9.60;97.30;;;;;;4916745;29;20942;-73
2020/12/23 08:35:44;;;;;;;37.93;14.53;;;9.60;97.30;;;;;;4932015;29;20492;-74
2020/12/23 08:38:22;;;;;;;43.03;16.30;;;9.60;97.30;;;;;;4931036;29;20844;-72
2020/12/23 08:40:56;;;;;;;34.83;14.27;;;9.60;97.30;;;;;;4931247;29;20539;-73
2020/12/23 08:43:28;;;;;;;37.40;14.30;;;9.70;97.30;;;;;;4931024;29;20848;-73
2020/12/23 08:45:55;;;;;;;35.47;14.87;;;9.70;97.30;;;;;;4914416;29;20475;-72
2020/12/23 08:48:27;;;;;;;39.10;14.73;;;9.70;97.30;;;;;;4932014;29;20420;-73
2020/12/23 08:51:03;;;;;;;33.50;14.67;;;9.70;97.30;;;;;;4932523;29;20823;-73
2020/12/23 08:53:33;;;;;;;29.50;13.23;;;9.70;97.30;;;;;;4937573;29;20495;-73
2020/12/23 08:56:00;;;;;;;31.10;12.70;;;9.70;97.30;;;;;;4936985;29;20521;-73
2020/12/23 08:58:26;;;;;;;33.27;14.50;;;9.80;97.30;;;;;;4920851;29;20543;-72
2020/12/23 09:01:02;;;;;;;26.77;12.40;;;9.80;97.30;;;;;;4925639;29;20484;-73
2020/12/23 09:03:29;;;;;;;34.97;13.60;;;9.90;97.30;;;;;;4934710;29;20209;-73
2020/12/23 09:05:59;;;;;;;30.30;12.53;;;10.00;97.30;;;;;;4940900;29;20416;-72
2020/12/23 09:08:26;;;;;;;29.20;12.00;;;10.00;97.30;;;;;;4938520;29;20432;-73
2020/12/23 09:10:57;;;;;;;28.17;11.70;;;10.10;97.30;;;;;;4943442;29;20922;-72
2020/12/23 09:13:44;;;;;;;28.63;11.20;;;10.10;97.30;;;;;;4919308;29;20436;-72
2020/12/23 09:16:21;;;;;;;26.60;11.67;;;10.20;97.30;;;;;;4920229;29;20432;-74
2020/12/23 09:18:50;;;;;;;26.97;12.00;;;10.20;97.30;;;;;;4934841;29;20557;-73
2020/12/23 09:21:19;;;;;;;24.80;11.30;;;10.30;97.30;;;;;;4933701;29;20440;-73
2020/12/23 09:23:44;;;;;;;29.53;11.90;;;10.30;97.30;;;;;;4934968;29;20443;-73
2020/12/23 09:26:16;;;;;;;25.83;10.50;;;10.30;97.30;;;;;;4935312;29;20919;-72
2020/12/23 09:28:42;;;;;;;26.50;11.70;;;10.40;97.30;;;;;;4934794;29;20192;-73
2020/12/23 09:31:08;;;;;;;25.20;11.57;;;10.40;97.30;;;;;;4919748;29;20555;-73
2020/12/23 09:33:41;;;;;;;29.40;12.60;;;10.50;97.30;;;;;;4934341;29;20236;-73
2020/12/23 09:36:07;;;;;;;36.33;14.60;;;10.60;97.30;;;;;;4920033;29;20453;-73
2020/12/23 09:38:34;;;;;;;42.27;19.23;;;10.60;97.30;;;;;;4934433;29;20456;-73
2020/12/23 09:41:02;;;;;;;38.03;15.00;;;10.70;97.30;;;;;;4919795;29;20463;-75
2020/12/23 09:43:30;;;;;;;35.67;11.90;;;10.70;97.30;;;;;;4919379;29;20436;-74
2020/12/23 09:45:58;;;;;;;22.70;12.17;;;10.70;97.30;;;;;;4934412;29;20439;-73
2020/12/23 09:48:25;;;;;;;22.50;10.70;;;10.80;97.30;;;;;;4920245;29;20479;-73
2020/12/23 09:50:54;;;;;;;22.63;10.80;;;10.80;97.30;;;;;;4934368;29;20811;-73
2020/12/23 09:53:22;;;;;;;21.37;9.83;;;10.80;97.30;;;;;;4931245;29;20445;-74
2020/12/23 09:55:48;;;;;;;23.17;10.50;;;10.80;97.30;;;;;;4912255;29;20941;-73
2020/12/23 09:58:14;;;;;;;24.50;10.30;;;10.90;97.30;;;;;;4919658;29;20463;-74
2020/12/23 10:00:41;;;;;;;18.90;10.40;;;10.90;97.30;;;;;;4919411;29;20436;-74
2020/12/23 10:03:08;;;;;;;18.73;9.40;;;10.90;97.30;;;;;;4918420;29;20432;-74
2020/12/23 10:05:35;;;;;;;19.73;9.70;;;10.90;97.30;;;;;;4934220;29;20511;-74
2020/12/23 10:08:01;;;;;;;22.83;10.33;;;11.00;97.30;;;;;;4934355;29;20421;-73
2020/12/23 10:10:27;;;;;;;22.33;11.53;;;11.00;97.30;;;;;;4934702;29;20487;-73
2020/12/23 10:12:53;;;;;;;20.00;10.23;;;11.00;97.30;;;;;;4934367;29;20417;-73
2020/12/23 10:15:19;;;;;;;16.43;9.90;;;11.00;97.30;;;;;;4919316;29;20409;-74
2020/12/23 10:17:45;;;;;;;16.07;9.00;;;11.00;97.30;;;;;;4918269;29;20204;-73
2020/12/23 10:20:10;;;;;;;18.03;9.40;;;11.00;97.30;;;;;;4918378;29;20424;-73
2020/12/23 10:22:37;;;;;;;30.00;9.30;;;11.00;97.30;;;;;;4917924;29;20471;-74
2020/12/23 10:25:07;;;;;;;16.10;8.70;;;11.00;97.30;;;;;;4917795;29;20472;-73
2020/12/23 10:27:34;;;;;;;13.40;7.73;;;11.00;97.30;;;;;;4933855;29;20520;-73
2020/12/23 10:29:59;;;;;;;17.57;8.20;;;11.00;97.30;;;;;;4919193;29;20416;-73
2020/12/23 10:32:28;;;;;;;21.57;10.30;;;11.00;97.30;;;;;;4916413;29;20461;-74
2020/12/23 10:35:01;;;;;;;12.90;8.23;;;11.00;97.30;;;;;;4938447;29;20188;-73
2020/12/23 10:37:27;;;;;;;15.90;8.87;;;11.10;97.30;;;;;;4918867;29;20495;-73
2020/12/23 10:40:00;;;;;;;13.47;8.70;;;11.10;97.30;;;;;;4916606;29;20457;-74
2020/12/23 10:42:29;;;;;;;15.97;8.53;;;11.10;97.30;;;;;;4933834;29;20863;-74
2020/12/23 10:44:55;;;;;;;18.97;8.90;;;11.10;97.30;;;;;;4917319;29;21117;-74
2020/12/23 10:47:21;;;;;;;14.27;7.90;;;11.10;97.30;;;;;;4932948;29;20439;-73
2020/12/23 10:49:49;;;;;;;13.70;8.07;;;11.10;97.30;;;;;;4917548;29;20421;-73
2020/12/23 10:52:14;;;;;;;18.97;8.80;;;11.10;97.30;;;;;;4916650;29;20232;-74
2020/12/23 10:54:40;;;;;;;12.90;7.70;;;11.10;97.30;;;;;;4917405;29;20922;-73
2020/12/23 10:57:06;;;;;;;12.67;7.73;;;11.10;97.30;;;;;;4917496;29;20683;-74
2020/12/23 10:59:31;;;;;;;15.73;8.07;;;11.10;97.30;;;;;;4932918;29;20208;-73
2020/12/23 11:01:57;;;;;;;19.10;8.27;;;11.10;97.30;;;;;;4917281;29;20978;-74
2020/12/23 11:04:23;;;;;;;13.43;7.40;;;11.10;97.30;;;;;;4918343;29;20201;-73
2020/12/23 11:06:52;;;;;;;15.20;8.60;;;11.10;97.30;;;;;;4916955;29;20272;-73
2020/12/23 11:09:18;;;;;;;15.00;9.07;;;11.10;97.30;;;;;;4933090;29;20191;-73
2020/12/23 11:11:55;;;;;;;13.67;8.03;;;11.10;97.30;;;;;;4916982;29;20514;-73
2020/12/23 11:14:24;;;;;;;13.47;8.00;;;11.10;97.30;;;;;;4917109;29;20415;-73
2020/12/23 11:16:50;;;;;;;13.50;8.40;;;11.20;97.30;;;;;;4931249;29;20472;-74
2020/12/23 11:19:18;;;;;;;17.80;8.73;;;11.20;97.30;;;;;;4932741;29;20468;-73
2020/12/23 11:21:43;;;;;;;15.93;8.43;;;11.20;97.30;;;;;;4917016;29;20453;-73
2020/12/23 11:24:09;;;;;;;17.13;8.10;;;11.20;97.30;;;;;;4915031;29;20439;-73
2020/12/23 11:26:35;;;;;;;15.03;8.00;;;11.30;97.30;;;;;;4932762;29;20212;-73
2020/12/23 11:29:01;;;;;;;14.03;8.03;;;11.30;97.30;;;;;;4932989;29;20189;-73
2020/12/23 11:31:26;;;;;;;11.90;7.13;;;11.30;97.30;;;;;;4931509;29;20207;-74
2020/12/23 11:33:52;;;;;;;13.53;7.53;;;11.30;97.30;;;;;;4917781;29;20420;-74
2020/12/23 11:36:18;;;;;;;13.30;7.43;;;11.30;97.30;;;;;;4932503;29;20724;-74
2020/12/23 11:38:44;;;;;;;12.57;7.50;;;11.30;97.30;;;;;;4917927;29;20733;-74
2020/12/23 11:41:11;;;;;;;11.20;6.90;;;11.30;97.30;;;;;;4932515;29;20248;-73
2020/12/23 11:43:36;;;;;;;11.73;7.47;;;11.30;97.30;;;;;;4932442;29;20424;-74
2020/12/23 11:46:03;;;;;;;17.50;8.03;;;11.30;97.30;;;;;;4932451;29;20424;-74
2020/12/23 11:48:29;;;;;;;11.53;6.80;;;11.30;97.30;;;;;;4918021;29;20424;-74
2020/12/23 11:50:55;;;;;;;15.20;8.00;;;11.30;97.30;;;;;;4917723;29;20459;-74
2020/12/23 11:53:21;;;;;;;18.57;8.97;;;11.30;97.30;;;;;;4932459;29;20425;-74
2020/12/23 11:55:48;;;;;;;15.50;8.53;;;11.30;97.30;;;;;;4932308;29;20189;-74
2020/12/23 11:58:16;;;;;;;15.93;8.93;;;11.30;97.30;;;;;;4933517;29;20210;-74
2020/12/23 12:00:41;;;;;;;14.33;7.87;;;11.30;97.30;;;;;;4919611;29;20444;-72
2020/12/23 12:03:07;;;;;;;18.33;8.23;;;11.30;97.30;;;;;;4934472;29;20938;-75
2020/12/23 12:05:33;;;;;;;13.50;7.33;;;11.30;97.30;;;;;;4935357;29;20541;-74
2020/12/23 12:08:03;;;;;;;20.00;9.10;;;11.30;97.30;;;;;;4935465;29;20188;-73
2020/12/23 12:10:28;;;;;;;17.10;7.60;;;11.30;97.30;;;;;;4933667;29;20437;-74
2020/12/23 12:12:54;;;;;;;12.10;7.70;;;11.30;97.30;;;;;;4932286;29;20516;-74
2020/12/23 12:15:20;;;;;;;11.70;7.20;;;11.30;97.30;;;;;;4931616;29;20204;-74
2020/12/23 12:17:45;;;;;;;13.00;8.53;;;11.30;97.30;;;;;;4917184;29;20223;-74
2020/12/23 12:20:11;;;;;;;20.90;6.90;;;11.30;97.30;;;;;;4932468;29;20255;-74
2020/12/23 12:22:37;;;;;;;17.43;7.57;;;11.30;97.30;;;;;;4931845;29;20214;-73
2020/12/23 12:25:02;;;;;;;13.57;6.47;;;11.30;97.30;;;;;;4931469;29;20227;-74
2020/12/23 12:27:28;;;;;;;11.90;6.67;;;11.30;97.30;;;;;;4931445;29;20232;-74
2020/12/23 12:29:54;;;;;;;10.40;6.27;;;11.30;97.30;;;;;;4917052;29;20203;-73
2020/12/23 12:32:19;;;;;;;10.80;5.90;;;11.30;97.30;;;;;;4916544;29;20223;-74
2020/12/23 12:34:45;;;;;;;12.30;6.63;;;11.30;97.30;;;;;;4917052;29;20290;-74
2020/12/23 12:37:11;;;;;;;11.97;5.37;;;11.30;97.30;;;;;;4931700;29;20184;-74
2020/12/23 12:39:36;;;;;;;10.57;5.23;;;11.30;97.30;;;;;;4932467;29;20177;-73
2020/12/23 12:42:02;;;;;;;10.90;5.60;;;11.30;97.30;;;;;;4931532;29;20208;-74
2020/12/23 12:44:28;;;;;;;14.10;6.10;;;11.30;97.30;;;;;;4931334;29;20187;-74
2020/12/23 12:46:55;;;;;;;5.27;3.90;;;11.30;97.30;;;;;;4931422;29;20184;-74
2020/12/23 12:49:21;;;;;;;6.73;4.00;;;11.30;97.30;;;;;;4931630;29;20425;-73
2020/12/23 12:51:48;;;;;;;8.80;5.03;;;11.30;97.30;;;;;;4931531;29;20535;-74
2020/12/23 12:54:14;;;;;;;5.67;4.27;;;11.30;97.30;;;;;;4931910;29;20483;-74
2020/12/23 12:56:39;;;;;;;6.77;4.70;;;11.30;97.30;;;;;;4931408;29;20421;-74
2020/12/23 12:59:05;;;;;;;11.00;5.17;;;11.30;97.30;;;;;;4931172;29;20308;-74
2020/12/23 13:01:41;;;;;;;7.40;4.60;;;11.40;97.30;;;;;;4931178;29;20246;-74
2020/12/23 13:04:08;;;;;;;9.30;5.13;;;11.40;97.30;;;;;;4909751;29;20684;-74
2020/12/23 13:06:35;;;;;;;7.53;4.37;;;11.40;97.30;;;;;;4931410;29;20429;-73
2020/12/23 13:09:03;;;;;;;8.40;4.80;;;11.50;97.30;;;;;;4931575;29;20830;-73
2020/12/23 13:11:29;;;;;;;10.13;5.30;;;11.40;97.30;;;;;;4916667;29;20501;-74
2020/12/23 13:13:55;;;;;;;11.33;5.50;;;11.40;97.30;;;;;;4931161;29;20425;-74
2020/12/23 13:16:26;;;;;;;10.60;5.27;;;11.40;97.30;;;;;;4916597;29;20236;-74
2020/12/23 13:18:52;;;;;;;9.23;5.23;;;11.40;97.30;;;;;;4931497;29;20536;-73
2020/12/23 13:21:18;;;;;;;10.43;5.60;;;11.40;97.30;;;;;;4931272;29;20440;-74
2020/12/23 13:23:46;;;;;;;7.20;5.27;;;11.40;97.30;;;;;;4931240;29;20180;-74
2020/12/23 13:26:13;;;;;;;11.70;5.57;;;11.40;97.30;;;;;;4915404;29;20176;-74
2020/12/23 13:28:39;;;;;;;12.83;5.70;;;11.40;97.30;;;;;;4930952;29;20445;-74
2020/12/23 13:31:05;;;;;;;8.30;5.17;;;11.40;97.30;;;;;;4915476;29;20488;-74
2020/12/23 13:33:32;;;;;;;9.97;5.33;;;11.50;97.30;;;;;;4930947;29;20476;-74
2020/12/23 13:36:01;;;;;;;13.60;5.00;;;11.50;97.30;;;;;;4931252;29;20189;-74
2020/12/23 13:38:27;;;;;;;10.53;5.00;;;11.50;97.30;;;;;;4931196;29;21000;-73
2020/12/23 13:40:53;;;;;;;8.37;5.30;;;11.60;97.30;;;;;;4931147;29;20848;-74
2020/12/23 13:43:19;;;;;;;9.20;4.70;;;11.60;97.30;;;;;;4930878;29;20428;-74
2020/12/23 13:45:45;;;;;;;7.20;4.73;;;11.50;97.30;;;;;;4916557;29;20421;-74
2020/12/23 13:48:10;;;;;;;6.70;4.30;;;11.60;97.30;;;;;;4916467;29;20421;-73
2020/12/23 13:50:37;;;;;;;5.60;4.40;;;11.60;97.30;;;;;;4916466;29;20568;-73
2020/12/23 13:53:07;;;;;;;16.83;5.13;;;11.60;97.30;;;;;;4930655;29;20185;-74
2020/12/23 13:55:34;;;;;;;9.87;4.97;;;11.60;97.30;;;;;;4919055;29;20425;-74
2020/12/23 13:58:00;;;;;;;9.30;5.20;;;11.60;97.30;;;;;;4919552;29;20571;-74
2020/12/23 14:00:27;;;;;;;7.50;4.73;;;11.60;97.30;;;;;;4934511;29;20436;-74
2020/12/23 14:02:52;;;;;;;6.27;4.30;;;11.60;97.30;;;;;;4934263;29;20452;-74
2020/12/23 14:05:20;;;;;;;7.80;5.40;;;11.60;97.30;;;;;;4933902;29;20926;-74
2020/12/23 14:07:46;;;;;;;9.37;5.30;;;11.60;97.30;;;;;;4934360;29;20184;-73
2020/12/23 14:10:13;;;;;;;8.43;5.30;;;11.60;97.30;;;;;;4919750;29;20432;-74
2020/12/23 14:12:38;;;;;;;6.10;4.60;;;11.60;97.30;;;;;;4934290;29;20421;-74
2020/12/23 14:15:06;;;;;;;12.70;5.40;;;11.60;97.30;;;;;;4934153;29;20485;-73
2020/12/23 14:17:32;;;;;;;9.10;5.50;;;11.60;97.30;;;;;;4934623;29;20467;-75
2020/12/23 14:19:57;;;;;;;8.60;5.53;;;11.60;97.30;;;;;;4919624;29;20416;-74
2020/12/23 14:22:23;;;;;;;22.30;6.20;;;11.60;97.30;;;;;;4933818;29;20204;-75
2020/12/23 14:24:49;;;;;;;11.07;5.80;;;11.50;97.30;;;;;;4919033;29;20195;-75
2020/12/23 14:27:15;;;;;;;8.27;5.73;;;11.50;97.30;;;;;;4933939;29;20549;-75
2020/12/23 14:29:40;;;;;;;13.43;6.73;;;11.50;97.30;;;;;;4919686;29;20639;-75
2020/12/23 14:32:07;;;;;;;12.00;6.40;;;11.50;97.30;;;;;;4919463;29;20196;-74
2020/12/23 14:34:32;;;;;;;10.63;6.50;;;11.40;97.30;;;;;;4933805;29;20530;-75
2020/12/23 14:36:58;;;;;;;11.27;5.60;;;11.40;97.30;;;;;;4933743;29;20993;-75
2020/12/23 14:39:24;;;;;;;11.90;5.67;;;11.40;97.30;;;;;;4917917;29;20765;-75
2020/12/23 14:41:52;;;;;;;10.87;5.90;;;11.40;97.30;;;;;;4919165;29;20845;-74
2020/12/23 14:44:19;;;;;;;9.30;5.30;;;11.40;97.30;;;;;;4933489;29;20468;-75
2020/12/23 14:46:54;;;;;;;7.43;5.60;;;11.30;97.30;;;;;;4933992;29;20420;-74
2020/12/23 14:49:20;;;;;;;7.73;5.10;;;11.30;97.30;;;;;;4933283;29;20841;-75
2020/12/23 14:51:46;;;;;;;9.30;5.90;;;11.30;97.30;;;;;;4933507;29;20455;-75
2020/12/23 14:54:12;;;;;;;11.30;5.93;;;11.30;97.30;;;;;;4920969;29;20432;-75
2020/12/23 14:56:39;;;;;;;9.57;5.63;;;11.30;97.30;;;;;;4939031;29;20264;-75
2020/12/23 14:59:05;;;;;;;9.60;7.00;;;11.30;97.30;;;;;;4943527;29;20467;-75
2020/12/23 15:01:32;;;;;;;13.77;6.83;;;11.30;97.30;;;;;;4931831;29;20454;-75
2020/12/23 15:03:58;;;;;;;8.30;5.37;;;11.30;97.30;;;;;;4945156;29;20415;-75
2020/12/23 15:06:23;;;;;;;10.20;5.53;;;11.30;97.30;;;;;;4940443;29;20419;-75
2020/12/23 15:08:51;;;;;;;8.07;5.60;;;11.30;97.30;;;;;;4927613;29;20416;-75
2020/12/23 15:11:25;;;;;;;8.67;5.40;;;11.30;97.30;;;;;;4929428;29;20275;-74
2020/12/23 15:13:52;;;;;;;8.53;4.83;;;11.30;97.30;;;;;;4924745;29;20428;-74
2020/12/23 15:16:19;;;;;;;11.33;6.20;;;11.30;97.30;;;;;;4919960;29;20506;-74
2020/12/23 15:18:46;;;;;;;7.07;5.30;;;11.30;97.30;;;;;;4932922;29;20453;-75
2020/12/23 15:21:12;;;;;;;6.77;5.20;;;11.30;97.30;;;;;;4918282;29;20441;-75
2020/12/23 15:23:38;;;;;;;7.23;4.57;;;11.40;97.30;;;;;;4932815;29;20507;-75
2020/12/23 15:26:04;;;;;;;9.17;4.13;;;11.40;97.30;;;;;;4933222;29;20187;-74
2020/12/23 15:28:29;;;;;;;7.33;3.80;;;11.40;97.30;;;;;;4933115;29;20424;-75
2020/12/23 15:30:55;;;;;;;7.87;4.20;;;11.40;97.30;;;;;;4933109;29;20444;-74
2020/12/23 15:33:22;;;;;;;6.67;4.00;;;11.40;97.30;;;;;;4932879;29;20272;-75
2020/12/23 15:35:48;;;;;;;8.10;3.50;;;11.40;97.30;;;;;;4933058;29;20192;-75
2020/12/23 15:38:20;;;;;;;4.60;3.30;;;11.40;97.30;;;;;;4932819;29;20456;-75
2020/12/23 15:40:47;;;;;;;6.17;3.70;;;11.40;97.30;;;;;;4932999;29;20978;-76
2020/12/23 15:43:12;;;;;;;5.20;3.37;;;11.50;97.30;;;;;;4932428;29;20423;-75
2020/12/23 15:45:38;;;;;;;4.10;3.27;;;11.50;97.30;;;;;;4932791;29;20417;-75
2020/12/23 15:48:04;;;;;;;5.47;3.00;;;11.60;97.30;;;;;;4917765;29;20192;-74
2020/12/23 15:50:29;;;;;;;4.40;3.63;;;11.60;97.30;;;;;;4932670;29;20180;-75
2020/12/23 15:52:55;;;;;;;6.87;3.90;;;11.50;97.30;;;;;;4932531;29;20180;-75
2020/12/23 15:55:21;;;;;;;5.27;4.00;;;11.50;97.30;;;;;;4932732;29;20257;-75
2020/12/23 15:57:46;;;;;;;8.53;4.10;;;11.50;97.30;;;;;;4932282;29;20231;-75
2020/12/23 16:00:12;;;;;;;6.77;4.20;;;11.50;97.30;;;;;;4932587;29;20196;-76
2020/12/23 16:02:38;;;;;;;7.33;4.33;;;11.50;97.30;;;;;;4932275;29;20297;-75
2020/12/23 16:05:04;;;;;;;8.37;4.60;;;11.50;97.30;;;;;;4931919;29;20192;-75
2020/12/23 16:07:30;;;;;;;7.97;4.50;;;11.50;97.30;;;;;;4917865;29;20566;-75
2020/12/23 16:09:58;;;;;;;7.53;4.60;;;11.50;97.30;;;;;;4932372;29;20440;-75
2020/12/23 16:12:24;;;;;;;8.53;5.20;;;11.50;97.30;;;;;;4932222;29;20479;-75
2020/12/23 16:14:49;;;;;;;9.53;5.30;;;11.40;97.30;;;;;;4917594;29;20413;-75
2020/12/23 16:17:15;;;;;;;9.77;6.07;;;11.40;97.30;;;;;;4917032;29;20420;-75
2020/12/23 16:19:41;;;;;;;13.23;6.30;;;11.40;97.30;;;;;;4932215;29;20181;-76
2020/12/23 16:22:06;;;;;;;10.13;5.83;;;11.40;97.30;;;;;;4932630;29;20287;-75
2020/12/23 16:24:36;;;;;;;11.70;6.70;;;11.40;97.30;;;;;;4932088;29;20217;-75
2020/12/23 16:27:03;;;;;;;9.37;5.90;;;11.40;97.30;;;;;;4932147;29;20176;-75
2020/12/23 16:29:29;;;;;;;14.50;6.80;;;11.40;97.30;;;;;;4932013;29;20421;-75
2020/12/23 16:31:54;;;;;;;13.10;6.73;;;11.40;97.30;;;;;;4931893;29;20440;-75
2020/12/23 16:34:20;;;;;;;12.03;7.30;;;11.40;97.30;;;;;;4917283;29;20180;-74
2020/12/23 16:36:46;;;;;;;13.33;6.97;;;11.40;97.30;;;;;;4917459;29;20192;-75
2020/12/23 16:39:12;;;;;;;18.27;8.10;;;11.40;97.30;;;;;;4932557;29;20196;-75
2020/12/23 16:41:38;;;;;;;16.77;8.70;;;11.40;97.30;;;;;;4931890;29;20519;-75
2020/12/23 16:44:07;;;;;;;15.47;8.00;;;11.30;97.30;;;;;;4931415;29;20205;-75
2020/12/23 16:46:38;;;;;;;16.03;8.77;;;11.30;97.30;;;;;;4917170;29;20978;-74
2020/12/23 16:49:04;;;;;;;16.10;9.57;;;11.30;97.30;;;;;;4931301;29;20950;-74
2020/12/23 16:51:29;;;;;;;17.37;8.67;;;11.20;97.30;;;;;;4917094;29;20429;-74
2020/12/23 16:53:55;;;;;;;12.17;8.70;;;11.20;97.30;;;;;;4931047;29;20183;-74
2020/12/23 16:56:21;;;;;;;16.37;8.00;;;11.20;97.30;;;;;;4931404;29;20183;-73
2020/12/23 16:58:46;;;;;;;16.10;8.50;;;11.20;97.30;;;;;;4916659;29;20185;-73
2020/12/23 17:01:13;;;;;;;12.30;7.77;;;11.20;97.30;;;;;;4917004;29;20286;-74
2020/12/23 17:03:39;;;;;;;15.13;9.43;;;11.20;97.30;;;;;;4931630;29;20176;-73
2020/12/23 17:06:09;;;;;;;13.00;8.13;;;11.20;97.30;;;;;;4917247;29;20424;-73
2020/12/23 17:08:35;;;;;;;12.00;8.20;;;11.20;97.30;;;;;;4932258;29;20428;-73
2020/12/23 17:11:00;;;;;;;19.93;9.40;;;11.20;97.30;;;;;;4931601;29;20974;-74
2020/12/23 17:13:26;;;;;;;16.77;9.53;;;11.20;97.30;;;;;;4931488;29;20564;-73
2020/12/23 17:15:52;;;;;;;13.97;8.80;;;11.10;97.30;;;;;;4916905;29;20224;-72
2020/12/23 17:18:18;;;;;;;14.20;9.23;;;11.10;97.30;;;;;;4931619;29;20215;-73
2020/12/23 17:20:44;;;;;;;19.27;11.37;;;11.10;97.30;;;;;;4931399;29;20449;-73
2020/12/23 17:23:15;;;;;;;27.50;16.10;;;11.10;97.30;;;;;;4931206;29;20558;-73
2020/12/23 17:25:41;;;;;;;26.13;15.67;;;11.10;97.30;;;;;;4930808;29;20261;-73
2020/12/23 17:28:07;;;;;;;24.10;16.40;;;11.10;97.30;;;;;;4931253;29;20436;-73
2020/12/23 17:30:33;;;;;;;25.00;14.73;;;11.10;97.30;;;;;;4919270;29;20654;-74
2020/12/23 17:32:59;;;;;;;21.27;12.50;;;11.10;97.30;;;;;;4919832;29;20200;-74
2020/12/23 17:35:24;;;;;;;22.33;14.27;;;11.10;97.30;;;;;;4934804;29;20271;-73
2020/12/23 17:37:50;;;;;;;22.40;14.57;;;11.10;97.30;;;;;;4934604;29;20568;-73
2020/12/23 17:40:16;;;;;;;19.77;11.77;;;11.10;97.30;;;;;;4934266;29;20638;-73
2020/12/23 17:42:43;;;;;;;15.87;10.50;;;11.10;97.30;;;;;;4934499;29;20180;-73
2020/12/23 17:45:09;;;;;;;16.10;9.60;;;11.10;97.30;;;;;;4919586;29;20232;-74
2020/12/23 17:47:35;;;;;;;16.07;10.63;;;11.10;97.30;;;;;;4934856;29;20467;-74
2020/12/23 17:50:01;;;;;;;16.60;9.97;;;11.10;97.30;;;;;;4934831;29;20460;-73
2020/12/23 17:52:27;;;;;;;23.93;11.47;;;11.10;97.30;;;;;;4934649;29;20576;-73
2020/12/23 17:54:53;;;;;;;19.07;10.97;;;11.10;97.30;;;;;;4934441;29;20939;-74
2020/12/23 17:57:25;;;;;;;19.40;10.13;;;11.10;97.30;;;;;;4919883;29;20180;-72
2020/12/23 17:59:52;;;;;;;17.27;9.23;;;11.10;97.30;;;;;;4934323;29;20461;-73
2020/12/23 18:02:18;;;;;;;14.07;9.30;;;11.10;97.30;;;;;;4919715;29;20487;-73
2020/12/23 18:04:44;;;;;;;17.90;9.40;;;11.20;97.30;;;;;;4933800;29;20413;-73
2020/12/23 18:07:14;;;;;;;14.50;9.53;;;11.20;97.30;;;;;;4932889;29;20428;-73
2020/12/23 18:09:40;;;;;;;16.63;9.40;;;11.20;97.30;;;;;;4919620;29;20443;-72
2020/12/23 18:12:07;;;;;;;14.87;9.37;;;11.20;97.30;;;;;;4934407;29;20440;-74
2020/12/23 18:14:37;;;;;;;18.00;9.33;;;11.20;97.30;;;;;;4918447;29;20452;-72
2020/12/23 18:17:12;;;;;;;17.60;9.37;;;11.20;97.30;;;;;;4934211;29;20427;-73
2020/12/23 18:19:39;;;;;;;14.70;9.20;;;11.20;97.30;;;;;;4933694;29;20593;-73
2020/12/23 18:22:19;;;;;;;16.57;9.37;;;11.20;97.30;;;;;;4934059;29;20432;-73
2020/12/23 18:24:45;;;;;;;15.60;9.03;;;11.20;97.30;;;;;;4934439;29;20450;-74
2020/12/23 18:27:11;;;;;;;14.50;8.90;;;11.20;97.30;;;;;;4919733;29;20512;-73
2020/12/23 18:29:37;;;;;;;14.67;8.97;;;11.20;97.30;;;;;;4934235;29;20507;-74
2020/12/23 18:32:03;;;;;;;15.70;9.40;;;11.20;97.30;;;;;;4919546;29;20866;-73
2020/12/23 18:34:29;;;;;;;14.77;9.90;;;11.20;97.30;;;;;;4933843;29;21002;-74
2020/12/23 18:36:59;;;;;;;14.73;9.27;;;11.20;97.30;;;;;;4933763;29;20792;-72
2020/12/23 18:39:29;;;;;;;14.13;9.80;;;11.20;97.30;;;;;;4933868;29;20469;-73